createdAt,value
2019-03-18T00:00:55.456Z,996.18
2019-03-18T00:01:55.448Z,996.19
2019-03-18T00:02:55.466Z,996.16
2019-03-18T00:03:55.428Z,996.15
2019-03-18T00:04:55.428Z,996.15
2019-03-18T00:05:55.409Z,996.22
2019-03-18T00:06:55.391Z,996.22
2019-03-18T00:07:55.416Z,996.22
2019-03-18T00:08:55.368Z,996.19
2019-03-18T00:09:55.358Z,996.30
2019-03-18T00:10:55.356Z,996.21
2019-03-18T00:11:55.403Z,996.24
2019-03-18T00:12:55.334Z,996.22
2019-03-18T00:13:55.321Z,996.18
2019-03-18T00:15:01.253Z,996.15
2019-03-18T00:15:55.304Z,996.18
2019-03-18T00:16:55.291Z,996.13
2019-03-18T00:17:55.308Z,996.11
2019-03-18T00:18:55.270Z,996.14
2019-03-18T00:19:55.256Z,996.14
2019-03-18T00:20:55.246Z,996.13
2019-03-18T00:21:55.234Z,996.11
2019-03-18T00:22:55.255Z,996.15
2019-03-18T00:23:55.212Z,996.26
2019-03-18T00:24:55.200Z,996.27
2019-03-18T00:25:55.192Z,996.26
2019-03-18T00:26:55.179Z,996.32
2019-03-18T00:27:55.163Z,996.37
2019-03-18T00:28:55.178Z,996.43
2019-03-18T00:29:55.142Z,996.45
2019-03-18T00:30:55.132Z,996.48
2019-03-18T00:31:55.124Z,996.42
2019-03-18T00:32:55.148Z,996.47
2019-03-18T00:33:55.108Z,996.52
2019-03-18T00:34:55.087Z,996.52
2019-03-18T00:35:55.090Z,996.56
2019-03-18T00:36:55.070Z,996.60
2019-03-18T00:37:55.058Z,996.55
2019-03-18T00:38:55.060Z,996.58
2019-03-18T00:39:55.044Z,996.60
2019-03-18T00:40:55.028Z,996.58
2019-03-18T00:41:55.015Z,996.64
2019-03-18T00:42:55.004Z,996.67
2019-03-18T00:43:54.992Z,996.69
2019-03-18T00:44:54.995Z,996.62
2019-03-18T00:45:54.977Z,996.57
2019-03-18T00:46:54.962Z,996.56
2019-03-18T00:47:54.964Z,996.56
2019-03-18T00:48:54.942Z,996.60
2019-03-18T00:49:54.932Z,996.61
2019-03-18T00:50:54.924Z,996.59
2019-03-18T00:51:54.907Z,996.61
2019-03-18T00:52:54.932Z,996.67
2019-03-18T00:53:54.892Z,996.60
2019-03-18T00:54:54.880Z,996.66
2019-03-18T00:55:54.870Z,996.71
2019-03-18T00:56:54.848Z,996.68
2019-03-18T00:57:54.847Z,996.63
2019-03-18T00:58:54.834Z,996.57
2019-03-18T00:59:54.825Z,996.61
2019-03-18T01:00:54.811Z,996.60
2019-03-18T01:01:54.804Z,996.61
2019-03-18T01:02:54.794Z,996.59
2019-03-18T01:03:54.815Z,996.67
2019-03-18T01:04:54.766Z,996.64
2019-03-18T01:05:54.758Z,996.65
2019-03-18T01:06:54.744Z,996.62
2019-03-18T01:07:54.746Z,996.64
2019-03-18T01:08:54.772Z,996.58
2019-03-18T01:09:54.718Z,996.57
2019-03-18T01:10:54.710Z,996.53
2019-03-18T01:11:54.691Z,996.52
2019-03-18T01:12:54.679Z,996.49
2019-03-18T01:13:54.667Z,996.51
2019-03-18T01:14:54.689Z,996.47
2019-03-18T01:15:54.658Z,996.46
2019-03-18T01:16:54.640Z,996.46
2019-03-18T01:17:54.629Z,996.45
2019-03-18T01:18:54.616Z,996.39
2019-03-18T01:19:54.609Z,996.45
2019-03-18T01:20:54.630Z,996.42
2019-03-18T01:21:54.579Z,996.40
2019-03-18T01:22:54.579Z,996.41
2019-03-18T01:23:54.562Z,996.47
2019-03-18T01:24:54.558Z,996.51
2019-03-18T01:25:54.542Z,996.53
2019-03-18T01:26:54.558Z,996.53
2019-03-18T01:27:54.528Z,996.57
2019-03-18T01:28:54.511Z,996.52
2019-03-18T01:29:54.505Z,996.54
2019-03-18T01:30:54.488Z,996.50
2019-03-18T01:31:54.477Z,996.46
2019-03-18T01:32:54.498Z,996.48
2019-03-18T01:33:54.452Z,996.49
2019-03-18T01:34:54.442Z,996.50
2019-03-18T01:35:54.432Z,996.47
2019-03-18T01:36:54.418Z,996.50
2019-03-18T01:37:54.436Z,996.45
2019-03-18T01:38:54.429Z,996.51
2019-03-18T01:39:54.389Z,996.49
2019-03-18T01:40:54.376Z,996.56
2019-03-18T01:41:54.365Z,996.53
2019-03-18T01:42:54.357Z,996.45
2019-03-18T01:43:54.378Z,996.46
2019-03-18T01:44:54.340Z,996.39
2019-03-18T01:45:55.116Z,996.38
2019-03-18T01:46:54.311Z,996.43
2019-03-18T01:47:54.303Z,996.48
2019-03-18T01:48:54.300Z,996.54
2019-03-18T01:49:54.317Z,996.47
2019-03-18T01:50:54.266Z,996.49
2019-03-18T01:51:54.260Z,996.56
2019-03-18T01:52:54.244Z,996.53
2019-03-18T01:53:54.272Z,996.56
2019-03-18T01:54:54.227Z,996.53
2019-03-18T01:55:54.215Z,996.55
2019-03-18T01:56:54.202Z,996.58
2019-03-18T01:57:54.191Z,996.60
2019-03-18T01:58:54.203Z,996.64
2019-03-18T01:59:54.169Z,996.63
2019-03-18T02:00:54.155Z,996.66
2019-03-18T02:01:54.151Z,996.62
2019-03-18T02:02:54.137Z,996.63
2019-03-18T02:03:54.125Z,996.62
2019-03-18T02:04:54.156Z,996.61
2019-03-18T02:05:54.106Z,996.64
2019-03-18T02:06:54.090Z,996.60
2019-03-18T02:07:54.087Z,996.53
2019-03-18T02:08:54.108Z,996.54
2019-03-18T02:09:54.068Z,996.48
2019-03-18T02:10:54.047Z,996.50
2019-03-18T02:11:54.039Z,996.48
2019-03-18T02:12:54.037Z,996.52
2019-03-18T02:13:57.149Z,996.59
2019-03-18T02:14:54.010Z,996.72
2019-03-18T02:15:54.099Z,996.79
2019-03-18T02:16:53.987Z,996.84
2019-03-18T02:17:53.979Z,996.82
2019-03-18T02:18:53.999Z,996.83
2019-03-18T02:19:53.951Z,996.85
2019-03-18T02:20:53.950Z,996.85
2019-03-18T02:21:53.933Z,996.93
2019-03-18T02:22:53.919Z,996.78
2019-03-18T02:23:53.911Z,996.80
2019-03-18T02:24:53.927Z,996.86
2019-03-18T02:25:53.889Z,996.82
2019-03-18T02:26:53.878Z,996.88
2019-03-18T02:27:53.873Z,996.88
2019-03-18T02:28:53.890Z,996.87
2019-03-18T02:29:53.845Z,996.92
2019-03-18T02:30:53.831Z,996.84
2019-03-18T02:31:53.826Z,996.89
2019-03-18T02:32:53.836Z,996.83
2019-03-18T02:33:53.838Z,996.88
2019-03-18T02:34:53.791Z,996.90
2019-03-18T02:35:53.780Z,996.99
2019-03-18T02:36:53.773Z,996.96
2019-03-18T02:37:53.765Z,996.94
2019-03-18T02:38:53.750Z,996.97
2019-03-18T02:39:53.779Z,997.02
2019-03-18T02:40:53.725Z,997.07
2019-03-18T02:41:53.712Z,997.07
2019-03-18T02:42:53.699Z,997.15
2019-03-18T02:43:53.693Z,997.09
2019-03-18T02:44:53.688Z,997.13
2019-03-18T02:46:09.001Z,997.10
2019-03-18T02:46:53.661Z,997.09
2019-03-18T02:47:56.600Z,997.17
2019-03-18T02:48:53.638Z,997.18
2019-03-18T02:49:56.602Z,997.19
2019-03-18T02:50:53.616Z,997.25
2019-03-18T02:51:53.635Z,997.18
2019-03-18T02:52:53.600Z,997.25
2019-03-18T02:53:53.583Z,997.27
2019-03-18T02:54:53.573Z,997.25
2019-03-18T02:55:53.571Z,997.32
2019-03-18T02:56:53.553Z,997.39
2019-03-18T02:57:53.569Z,997.39
2019-03-18T02:58:53.540Z,997.42
2019-03-18T02:59:53.526Z,997.45
2019-03-18T03:00:53.538Z,997.57
2019-03-18T03:01:53.496Z,997.54
2019-03-18T03:02:53.485Z,997.53
2019-03-18T03:03:53.473Z,997.53
2019-03-18T03:04:53.469Z,997.39
2019-03-18T03:05:53.484Z,997.46
2019-03-18T03:06:53.487Z,997.34
2019-03-18T03:07:53.437Z,997.34
2019-03-18T03:08:53.417Z,997.31
2019-03-18T03:09:53.405Z,997.39
2019-03-18T03:10:53.396Z,997.39
2019-03-18T03:11:53.398Z,997.40
2019-03-18T03:12:53.421Z,997.46
2019-03-18T03:13:53.370Z,997.45
2019-03-18T03:14:53.358Z,997.48
2019-03-18T03:15:53.344Z,997.44
2019-03-18T03:16:53.337Z,997.48
2019-03-18T03:17:53.324Z,997.52
2019-03-18T03:18:54.087Z,997.54
2019-03-18T03:19:53.304Z,997.58
2019-03-18T03:20:53.292Z,997.55
2019-03-18T03:21:53.282Z,997.56
2019-03-18T03:22:54.081Z,997.59
2019-03-18T03:23:53.257Z,997.61
2019-03-18T03:24:56.088Z,997.64
2019-03-18T03:25:53.236Z,997.73
2019-03-18T03:26:53.233Z,997.78
2019-03-18T03:27:53.216Z,997.73
2019-03-18T03:28:53.196Z,997.77
2019-03-18T03:29:53.191Z,997.80
2019-03-18T03:30:53.212Z,997.70
2019-03-18T03:31:53.175Z,997.71
2019-03-18T03:32:53.169Z,997.77
2019-03-18T03:33:53.152Z,997.82
2019-03-18T03:34:54.121Z,997.85
2019-03-18T03:35:53.123Z,997.83
2019-03-18T03:36:53.148Z,997.81
2019-03-18T03:37:53.108Z,997.81
2019-03-18T03:38:53.109Z,997.83
2019-03-18T03:39:53.077Z,997.88
2019-03-18T03:40:53.067Z,997.83
2019-03-18T03:41:53.067Z,997.86
2019-03-18T03:42:53.055Z,997.88
2019-03-18T03:43:53.058Z,997.84
2019-03-18T03:44:53.026Z,997.88
2019-03-18T03:45:53.026Z,997.93
2019-03-18T03:46:53.006Z,997.81
2019-03-18T03:47:53.007Z,997.91
2019-03-18T03:48:52.987Z,997.85
2019-03-18T03:49:53.013Z,997.86
2019-03-18T03:50:52.971Z,997.90
2019-03-18T03:51:52.982Z,997.94
2019-03-18T03:52:52.943Z,997.87
2019-03-18T03:53:52.932Z,997.92
2019-03-18T03:54:52.917Z,997.97
2019-03-18T03:55:52.938Z,998.02
2019-03-18T03:56:52.907Z,998.04
2019-03-18T03:57:52.919Z,998.01
2019-03-18T03:58:52.871Z,998.07
2019-03-18T03:59:52.900Z,998.08
2019-03-18T04:00:52.855Z,998.05
2019-03-18T04:01:52.845Z,998.03
2019-03-18T04:02:55.571Z,998.06
2019-03-18T04:03:52.823Z,998.04
2019-03-18T04:04:52.839Z,997.94
2019-03-18T04:05:52.808Z,998.07
2019-03-18T04:06:52.790Z,998.02
2019-03-18T04:07:52.788Z,998.09
2019-03-18T04:08:52.771Z,998.03
2019-03-18T04:09:52.758Z,998.06
2019-03-18T04:10:52.807Z,998.07
2019-03-18T04:11:52.738Z,998.08
2019-03-18T04:12:52.719Z,998.16
2019-03-18T04:13:52.743Z,998.11
2019-03-18T04:14:52.702Z,998.16
2019-03-18T04:15:52.689Z,998.20
2019-03-18T04:17:01.767Z,998.15
2019-03-18T04:17:52.665Z,998.17
2019-03-18T04:18:52.654Z,998.15
2019-03-18T04:19:52.683Z,998.14
2019-03-18T04:20:52.639Z,998.17
2019-03-18T04:21:52.630Z,998.20
2019-03-18T04:22:52.612Z,998.20
2019-03-18T04:23:52.605Z,998.27
2019-03-18T04:24:52.590Z,998.25
2019-03-18T04:25:52.615Z,998.29
2019-03-18T04:26:52.566Z,998.32
2019-03-18T04:27:52.565Z,998.40
2019-03-18T04:28:52.553Z,998.40
2019-03-18T04:29:52.571Z,998.44
2019-03-18T04:30:52.524Z,998.38
2019-03-18T04:31:52.546Z,998.42
2019-03-18T04:32:52.513Z,998.49
2019-03-18T04:33:52.493Z,998.44
2019-03-18T04:34:52.487Z,998.39
2019-03-18T04:35:52.479Z,998.42
2019-03-18T04:36:52.492Z,998.46
2019-03-18T04:37:52.452Z,998.49
2019-03-18T04:38:52.439Z,998.54
2019-03-18T04:39:52.424Z,998.60
2019-03-18T04:40:52.418Z,998.51
2019-03-18T04:41:52.439Z,998.48
2019-03-18T04:42:52.391Z,998.62
2019-03-18T04:43:52.386Z,998.58
2019-03-18T04:44:52.374Z,998.65
2019-03-18T04:45:52.361Z,998.58
2019-03-18T04:46:52.366Z,998.58
2019-03-18T04:47:52.346Z,998.55
2019-03-18T04:48:52.329Z,998.50
2019-03-18T04:49:52.322Z,998.55
2019-03-18T04:50:52.311Z,998.48
2019-03-18T04:51:52.303Z,998.43
2019-03-18T04:52:52.313Z,998.45
2019-03-18T04:53:52.271Z,998.49
2019-03-18T04:54:52.264Z,998.57
2019-03-18T04:55:52.252Z,998.57
2019-03-18T04:56:52.248Z,998.60
2019-03-18T04:57:52.248Z,998.57
2019-03-18T04:58:52.227Z,998.65
2019-03-18T04:59:52.215Z,998.62
2019-03-18T05:00:52.199Z,998.69
2019-03-18T05:01:52.193Z,998.70
2019-03-18T05:04:00.912Z,998.71
2019-03-18T05:05:01.873Z,998.69
2019-03-18T05:06:01.863Z,998.70
2019-03-18T05:07:01.861Z,998.76
2019-03-18T05:08:01.841Z,998.76
2019-03-18T05:09:01.862Z,998.80
2019-03-18T05:10:01.825Z,998.80
2019-03-18T05:11:01.800Z,998.84
2019-03-18T05:12:01.788Z,998.74
2019-03-18T05:13:01.783Z,998.83
2019-03-18T05:14:01.772Z,998.88
2019-03-18T05:15:01.785Z,998.83
2019-03-18T05:16:01.755Z,998.83
2019-03-18T05:17:01.737Z,998.86
2019-03-18T05:18:01.736Z,998.85
2019-03-18T05:19:01.720Z,998.89
2019-03-18T05:20:01.737Z,998.92
2019-03-18T05:21:01.701Z,998.93
2019-03-18T05:22:01.682Z,998.90
2019-03-18T05:23:01.673Z,998.98
2019-03-18T05:24:01.666Z,998.97
2019-03-18T05:25:01.677Z,998.98
2019-03-18T05:26:01.646Z,998.93
2019-03-18T05:27:01.635Z,998.85
2019-03-18T05:28:01.622Z,998.90
2019-03-18T05:29:01.607Z,999.01
2019-03-18T05:30:01.668Z,998.96
2019-03-18T05:31:01.592Z,998.93
2019-03-18T05:32:01.573Z,998.95
2019-03-18T05:33:01.560Z,998.92
2019-03-18T05:34:01.556Z,998.90
2019-03-18T05:35:01.582Z,998.87
2019-03-18T05:36:01.542Z,998.88
2019-03-18T05:37:01.519Z,998.84
2019-03-18T05:38:01.512Z,998.80
2019-03-18T05:39:02.079Z,998.78
2019-03-18T05:40:01.513Z,998.79
2019-03-18T05:41:01.480Z,998.74
2019-03-18T05:42:01.463Z,998.80
2019-03-18T05:43:01.464Z,998.77
2019-03-18T05:44:01.442Z,998.79
2019-03-18T05:45:01.461Z,998.79
2019-03-18T05:46:02.076Z,998.79
2019-03-18T05:47:01.412Z,998.77
2019-03-18T05:48:01.408Z,998.83
2019-03-18T05:49:01.386Z,998.81
2019-03-18T05:50:01.412Z,998.76
2019-03-18T05:51:01.367Z,998.81
2019-03-18T05:52:01.354Z,998.79
2019-03-18T05:53:01.372Z,998.80
2019-03-18T05:54:01.405Z,998.74
2019-03-18T05:55:01.323Z,998.81
2019-03-18T05:56:01.313Z,998.81
2019-03-18T05:57:01.302Z,998.84
2019-03-18T05:58:01.328Z,998.93
2019-03-18T05:59:01.280Z,998.87
2019-03-18T06:00:01.272Z,998.90
2019-03-18T06:01:01.258Z,998.90
2019-03-18T06:02:01.251Z,998.94
2019-03-18T06:03:01.232Z,998.86
2019-03-18T06:04:01.218Z,998.86
2019-03-18T06:05:01.220Z,998.85
2019-03-18T06:06:01.205Z,998.92
2019-03-18T06:07:01.189Z,998.89
2019-03-18T06:08:01.210Z,998.89
2019-03-18T06:09:01.165Z,998.85
2019-03-18T06:10:01.156Z,998.87
2019-03-18T06:11:01.146Z,998.88
2019-03-18T06:12:01.130Z,998.87
2019-03-18T06:13:01.144Z,998.87
2019-03-18T06:14:01.114Z,998.88
2019-03-18T06:15:01.103Z,998.94
2019-03-18T06:16:01.096Z,998.92
2019-03-18T06:17:01.108Z,998.92
2019-03-18T06:18:01.070Z,998.96
2019-03-18T06:19:01.060Z,998.96
2019-03-18T06:20:01.054Z,998.93
2019-03-18T06:21:01.071Z,998.92
2019-03-18T06:22:01.030Z,999.01
2019-03-18T06:23:01.010Z,998.90
2019-03-18T06:24:01.002Z,998.94
2019-03-18T06:25:00.998Z,998.99
2019-03-18T06:26:01.007Z,999.04
2019-03-18T06:27:00.976Z,999.00
2019-03-18T06:28:00.960Z,999.03
2019-03-18T06:29:00.951Z,999.01
2019-03-18T06:30:00.943Z,998.99
2019-03-18T06:31:00.956Z,999.05
2019-03-18T06:32:00.923Z,998.95
2019-03-18T06:33:00.902Z,999.00
2019-03-18T06:34:59.903Z,998.97
2019-03-18T06:36:00.904Z,998.98
2019-03-18T06:37:00.888Z,999.03
2019-03-18T06:38:00.850Z,999.06
2019-03-18T06:39:00.836Z,999.11
2019-03-18T06:40:00.854Z,999.05
2019-03-18T06:41:00.821Z,999.02
2019-03-18T06:42:00.800Z,999.06
2019-03-18T06:43:00.824Z,999.07
2019-03-18T06:44:00.778Z,998.99
2019-03-18T06:45:00.774Z,998.99
2019-03-18T06:46:01.552Z,998.98
2019-03-18T06:47:01.555Z,999.03
2019-03-18T06:48:05.296Z,999.03
2019-03-18T06:49:00.755Z,999.00
2019-03-18T06:50:00.712Z,999.04
2019-03-18T06:51:00.710Z,999.06
2019-03-18T06:52:00.702Z,999.05
2019-03-18T06:53:00.690Z,999.08
2019-03-18T06:54:00.708Z,999.11
2019-03-18T06:55:00.687Z,999.16
2019-03-18T06:56:00.652Z,999.11
2019-03-18T06:57:00.639Z,999.09
2019-03-18T06:58:00.625Z,999.03
2019-03-18T06:59:00.610Z,999.07
2019-03-18T07:00:00.609Z,999.02
2019-03-18T07:01:00.626Z,999.08
2019-03-18T07:02:00.661Z,999.07
2019-03-18T07:04:09.275Z,999.05
2019-03-18T07:05:10.291Z,999.10
2019-03-18T07:06:12.980Z,999.04
2019-03-18T07:07:12.982Z,999.10
2019-03-18T07:08:10.233Z,999.07
2019-03-18T07:09:10.242Z,999.13
2019-03-18T07:10:10.214Z,999.11
2019-03-18T07:11:10.195Z,999.11
2019-03-18T07:12:10.184Z,999.14
2019-03-18T07:13:10.175Z,999.18
2019-03-18T07:14:10.167Z,999.14
2019-03-18T07:15:10.178Z,999.20
2019-03-18T07:16:10.980Z,999.10
2019-03-18T07:17:10.136Z,999.10
2019-03-18T07:18:18.241Z,999.13
2019-03-18T07:19:12.973Z,999.24
2019-03-18T07:20:10.133Z,999.19
2019-03-18T07:21:10.087Z,999.18
2019-03-18T07:22:10.096Z,999.39
2019-03-18T07:23:12.978Z,999.21
2019-03-18T07:24:10.057Z,999.23
2019-03-18T07:25:12.975Z,999.11
2019-03-18T07:26:10.054Z,999.07
2019-03-18T07:27:10.062Z,999.06
2019-03-18T07:28:12.973Z,999.08
2019-03-18T07:29:10.003Z,999.07
2019-03-18T07:30:15.038Z,999.20
2019-03-18T07:31:09.981Z,999.23
2019-03-18T07:32:09.975Z,999.13
2019-03-18T07:33:09.971Z,999.11
2019-03-18T07:34:09.953Z,999.19
2019-03-18T07:35:09.940Z,999.17
2019-03-18T07:36:09.963Z,999.16
2019-03-18T07:38:08.929Z,999.11
2019-03-18T07:39:09.905Z,999.15
2019-03-18T07:40:11.240Z,999.12
2019-03-18T07:41:09.888Z,999.25
2019-03-18T07:42:09.896Z,999.18
2019-03-18T07:43:09.847Z,999.20
2019-03-18T07:44:09.840Z,999.26
2019-03-18T07:45:09.834Z,999.31
2019-03-18T07:46:09.812Z,999.31
2019-03-18T07:47:09.871Z,999.31
2019-03-18T07:48:12.736Z,999.28
2019-03-18T07:49:09.786Z,999.27
2019-03-18T07:50:09.801Z,999.29
2019-03-18T07:51:09.760Z,999.23
2019-03-18T07:52:09.752Z,999.31
2019-03-18T07:53:12.465Z,999.37
2019-03-18T07:54:09.742Z,999.30
2019-03-18T07:55:09.762Z,999.35
2019-03-18T07:56:09.712Z,999.41
2019-03-18T07:57:09.836Z,999.35
2019-03-18T07:58:09.695Z,999.41
2019-03-18T08:00:08.694Z,999.37
2019-03-18T08:01:09.759Z,999.41
2019-03-18T08:02:09.763Z,999.47
2019-03-18T08:03:09.703Z,999.48
2019-03-18T08:04:09.642Z,999.34
2019-03-18T08:05:09.610Z,999.37
2019-03-18T08:06:09.948Z,999.49
2019-03-18T08:07:09.625Z,999.39
2019-03-18T08:08:09.604Z,999.49
2019-03-18T08:09:09.564Z,999.39
2019-03-18T08:10:09.558Z,999.42
2019-03-18T08:11:09.545Z,999.40
2019-03-18T08:12:12.462Z,999.69
2019-03-18T08:13:09.559Z,999.55
2019-03-18T08:14:09.541Z,999.53
2019-03-18T08:15:09.508Z,999.53
2019-03-18T08:16:09.542Z,999.47
2019-03-18T08:17:09.487Z,999.50
2019-03-18T08:18:09.491Z,999.54
2019-03-18T08:19:09.461Z,999.50
2019-03-18T08:20:09.450Z,999.47
2019-03-18T08:21:09.437Z,999.64
2019-03-18T08:22:09.434Z,999.49
2019-03-18T08:23:09.503Z,999.64
2019-03-18T08:24:09.399Z,999.41
2019-03-18T08:25:10.002Z,999.50
2019-03-18T08:26:09.386Z,999.46
2019-03-18T08:27:09.383Z,999.65
2019-03-18T08:28:09.364Z,999.45
2019-03-18T08:29:11.958Z,999.58
2019-03-18T08:30:09.368Z,999.94
2019-03-18T08:31:09.329Z,999.57
2019-03-18T08:32:11.669Z,999.73
2019-03-18T08:34:08.296Z,999.67
2019-03-18T08:35:09.309Z,999.64
2019-03-18T08:36:09.281Z,999.45
2019-03-18T08:37:09.276Z,999.60
2019-03-18T08:38:09.288Z,999.49
2019-03-18T08:39:09.244Z,999.58
2019-03-18T08:40:09.292Z,999.57
2019-03-18T08:41:09.283Z,999.68
2019-03-18T08:42:09.964Z,999.72
2019-03-18T08:43:09.222Z,999.56
2019-03-18T08:44:09.191Z,999.62
2019-03-18T08:45:09.956Z,999.71
2019-03-18T08:46:09.198Z,999.67
2019-03-18T08:47:09.167Z,999.64
2019-03-18T08:48:09.159Z,999.61
2019-03-18T08:49:09.953Z,999.71
2019-03-18T08:50:11.937Z,999.78
2019-03-18T08:51:09.150Z,999.73
2019-03-18T08:52:09.099Z,999.68
2019-03-18T08:53:09.095Z,999.68
2019-03-18T08:54:09.087Z,999.70
2019-03-18T08:55:09.995Z,999.70
2019-03-18T08:56:09.951Z,999.76
2019-03-18T08:57:09.049Z,999.69
2019-03-18T08:58:09.048Z,999.65
2019-03-18T08:59:09.032Z,999.75
2019-03-18T09:00:09.081Z,999.78
2019-03-18T09:01:09.012Z,999.74
2019-03-18T09:02:08.992Z,999.72
2019-03-18T09:03:08.984Z,999.85
2019-03-18T09:04:08.972Z,999.71
2019-03-18T09:05:08.980Z,999.80
2019-03-18T09:06:09.009Z,999.78
2019-03-18T09:07:08.971Z,999.78
2019-03-18T09:08:09.447Z,999.87
2019-03-18T09:09:08.929Z,999.84
2019-03-18T09:10:08.903Z,999.84
2019-03-18T09:12:07.928Z,999.89
2019-03-18T09:13:08.876Z,999.89
2019-03-18T09:14:11.447Z,999.88
2019-03-18T09:15:08.872Z,999.85
2019-03-18T09:16:08.848Z,999.91
2019-03-18T09:17:08.855Z,999.93
2019-03-18T09:18:08.854Z,999.96
2019-03-18T09:19:09.338Z,999.89
2019-03-18T09:20:08.803Z,999.97
2019-03-18T09:21:08.785Z,999.99
2019-03-18T09:22:08.777Z,999.95
2019-03-18T09:23:08.778Z,999.95
2019-03-18T09:24:08.791Z,1000.11
2019-03-18T09:25:08.748Z,999.99
2019-03-18T09:26:08.732Z,1000.03
2019-03-18T09:27:08.725Z,1000.06
2019-03-18T09:28:08.743Z,1000.00
2019-03-18T09:29:08.713Z,1000.10
2019-03-18T09:30:08.685Z,1000.04
2019-03-18T09:31:08.701Z,1000.33
2019-03-18T09:32:08.673Z,1000.21
2019-03-18T09:33:08.718Z,1000.23
2019-03-18T09:34:08.649Z,1000.20
2019-03-18T09:35:08.627Z,1000.21
2019-03-18T09:36:08.640Z,1000.34
2019-03-18T09:37:08.609Z,1000.60
2019-03-18T09:38:11.436Z,1000.51
2019-03-18T09:39:08.615Z,1000.44
2019-03-18T09:40:08.580Z,1000.38
2019-03-18T09:41:09.090Z,1000.41
2019-03-18T09:42:08.552Z,1000.49
2019-03-18T09:43:11.435Z,1000.44
2019-03-18T09:44:08.537Z,1000.46
2019-03-18T09:45:08.543Z,1000.38
2019-03-18T09:46:08.508Z,1000.58
2019-03-18T09:47:08.498Z,1000.71
2019-03-18T09:48:08.539Z,1000.59
2019-03-18T09:49:20.660Z,1000.57
2019-03-18T09:50:08.467Z,1000.58
2019-03-18T09:51:09.668Z,1000.66
2019-03-18T09:52:08.441Z,1000.70
2019-03-18T09:53:08.425Z,1000.65
2019-03-18T09:54:08.447Z,1000.61
2019-03-18T09:55:08.476Z,1000.56
2019-03-18T09:56:10.936Z,1000.66
2019-03-18T09:57:08.932Z,1000.68
2019-03-18T09:58:08.377Z,1000.73
2019-03-18T09:59:08.371Z,1000.70
2019-03-18T10:00:08.391Z,1000.75
2019-03-18T10:01:10.929Z,1000.76
2019-03-18T10:02:08.331Z,1000.64
2019-03-18T10:03:08.323Z,1000.78
2019-03-18T10:04:08.309Z,1000.71
2019-03-18T10:06:07.297Z,1000.72
2019-03-18T10:07:08.275Z,1000.78
2019-03-18T10:08:08.309Z,1000.74
2019-03-18T10:09:08.255Z,1000.80
2019-03-18T10:10:08.263Z,1000.83
2019-03-18T10:11:08.233Z,1000.91
2019-03-18T10:12:08.228Z,1000.91
2019-03-18T10:13:08.236Z,1000.96
2019-03-18T10:14:08.199Z,1000.87
2019-03-18T10:15:08.491Z,1000.94
2019-03-18T10:16:08.220Z,1000.93
2019-03-18T10:17:10.036Z,1001.08
2019-03-18T10:18:08.155Z,1000.98
2019-03-18T10:19:08.181Z,1001.01
2019-03-18T10:20:08.264Z,1001.10
2019-03-18T10:21:08.124Z,1001.04
2019-03-18T10:22:08.111Z,1000.99
2019-03-18T10:23:08.095Z,1000.91
2019-03-18T10:24:08.081Z,1000.95
2019-03-18T10:25:08.485Z,1000.87
2019-03-18T10:26:08.060Z,1000.96
2019-03-18T10:27:08.926Z,1000.92
2019-03-18T10:28:08.044Z,1000.91
2019-03-18T10:29:08.060Z,1000.95
2019-03-18T10:30:08.016Z,1001.01
2019-03-18T10:31:08.010Z,1000.92
2019-03-18T10:32:07.999Z,1001.00
2019-03-18T10:33:07.989Z,1001.04
2019-03-18T10:34:08.015Z,1001.09
2019-03-18T10:35:08.003Z,1001.04
2019-03-18T10:36:08.006Z,1001.07
2019-03-18T10:37:07.942Z,1001.13
2019-03-18T10:38:07.932Z,1001.05
2019-03-18T10:39:07.930Z,1001.08
2019-03-18T10:40:07.929Z,1001.00
2019-03-18T10:41:07.927Z,1001.02
2019-03-18T10:42:07.893Z,1001.08
2019-03-18T10:43:07.875Z,1001.05
2019-03-18T10:44:08.055Z,1001.01
2019-03-18T10:45:07.850Z,1001.08
2019-03-18T10:46:07.893Z,1001.08
2019-03-18T10:47:07.834Z,1001.14
2019-03-18T10:48:07.819Z,1000.98
2019-03-18T10:49:07.811Z,1001.05
2019-03-18T10:50:07.889Z,1001.03
2019-03-18T10:51:07.791Z,1001.08
2019-03-18T10:52:07.814Z,1001.01
2019-03-18T10:53:07.774Z,1001.05
2019-03-18T10:54:07.785Z,1001.20
2019-03-18T10:55:07.759Z,1001.05
2019-03-18T10:56:08.518Z,1001.09
2019-03-18T10:57:07.721Z,1001.06
2019-03-18T10:58:07.715Z,1001.11
2019-03-18T10:59:07.703Z,1001.13
2019-03-18T11:00:07.702Z,1001.17
2019-03-18T11:01:07.708Z,1001.16
2019-03-18T11:02:08.415Z,1001.16
2019-03-18T11:03:07.657Z,1001.19
2019-03-18T11:04:07.642Z,1001.14
2019-03-18T11:05:08.332Z,1001.16
2019-03-18T11:06:07.660Z,1001.19
2019-03-18T11:07:07.618Z,1001.31
2019-03-18T11:08:07.611Z,1001.24
2019-03-18T11:09:07.595Z,1001.29
2019-03-18T11:10:07.577Z,1001.28
2019-03-18T11:11:07.593Z,1001.26
2019-03-18T11:12:07.555Z,1001.32
2019-03-18T11:13:07.545Z,1001.28
2019-03-18T11:14:07.534Z,1001.31
2019-03-18T11:15:07.530Z,1001.27
2019-03-18T11:16:07.539Z,1001.29
2019-03-18T11:17:07.540Z,1001.35
2019-03-18T11:18:07.489Z,1001.33
2019-03-18T11:19:07.481Z,1001.30
2019-03-18T11:20:07.468Z,1001.36
2019-03-18T11:21:07.488Z,1001.41
2019-03-18T11:22:07.502Z,1001.45
2019-03-18T11:23:07.434Z,1001.35
2019-03-18T11:24:07.431Z,1001.39
2019-03-18T11:25:07.414Z,1001.35
2019-03-18T11:26:07.912Z,1001.39
2019-03-18T11:27:07.659Z,1001.49
2019-03-18T11:28:07.393Z,1001.39
2019-03-18T11:29:07.369Z,1001.44
2019-03-18T11:30:07.360Z,1001.45
2019-03-18T11:31:07.375Z,1001.40
2019-03-18T11:32:07.344Z,1001.38
2019-03-18T11:33:07.325Z,1001.40
2019-03-18T11:34:07.351Z,1001.33
2019-03-18T11:35:07.302Z,1001.34
2019-03-18T11:36:07.320Z,1001.35
2019-03-18T11:37:07.282Z,1001.31
2019-03-18T11:38:07.268Z,1001.25
2019-03-18T11:39:07.265Z,1001.25
2019-03-18T11:40:07.250Z,1001.25
2019-03-18T11:41:07.302Z,1001.29
2019-03-18T11:42:07.228Z,1001.27
2019-03-18T11:43:07.366Z,1001.31
2019-03-18T11:44:07.204Z,1001.29
2019-03-18T11:45:08.296Z,1001.26
2019-03-18T11:46:07.222Z,1001.27
2019-03-18T11:47:07.174Z,1001.32
2019-03-18T11:48:07.156Z,1001.28
2019-03-18T11:49:07.148Z,1001.37
2019-03-18T11:50:11.419Z,1001.32
2019-03-18T11:51:07.183Z,1001.36
2019-03-18T11:52:07.122Z,1001.32
2019-03-18T11:53:14.202Z,1001.35
2019-03-18T11:54:07.101Z,1001.22
2019-03-18T11:55:07.277Z,1001.30
2019-03-18T11:56:07.106Z,1001.28
2019-03-18T11:57:07.056Z,1001.35
2019-03-18T11:58:07.049Z,1001.21
2019-03-18T11:59:07.041Z,1001.20
2019-03-18T12:00:07.069Z,1001.26
2019-03-18T12:01:07.066Z,1001.19
2019-03-18T12:02:09.904Z,1001.28
2019-03-18T12:03:06.998Z,1001.22
2019-03-18T12:04:06.990Z,1001.26
2019-03-18T12:05:07.443Z,1001.25
2019-03-18T12:06:06.987Z,1001.26
2019-03-18T12:07:06.955Z,1001.30
2019-03-18T12:08:09.900Z,1001.27
2019-03-18T12:09:06.940Z,1001.38
2019-03-18T12:10:07.165Z,1001.33
2019-03-18T12:11:06.932Z,1001.26
2019-03-18T12:12:06.890Z,1001.20
2019-03-18T12:13:06.892Z,1001.08
2019-03-18T12:14:06.893Z,1001.26
2019-03-18T12:15:06.858Z,1001.18
2019-03-18T12:16:06.878Z,1001.24
2019-03-18T12:17:06.834Z,1001.27
2019-03-18T12:18:06.971Z,1001.25
2019-03-18T12:19:06.824Z,1001.20
2019-03-18T12:20:06.806Z,1001.22
2019-03-18T12:21:06.825Z,1001.25
2019-03-18T12:22:06.786Z,1001.24
2019-03-18T12:24:05.765Z,1001.26
2019-03-18T12:25:06.781Z,1001.37
2019-03-18T12:26:06.792Z,1001.35
2019-03-18T12:27:06.726Z,1001.44
2019-03-18T12:28:06.716Z,1001.40
2019-03-18T12:29:06.719Z,1001.37
2019-03-18T12:30:06.735Z,1001.31
2019-03-18T12:31:06.679Z,1001.35
2019-03-18T12:32:06.677Z,1001.37